Time;durP1;ratioP1;P1;durP2;ratioP2;P2;SDS_P1;SDS_P2;PMS_P1;PMS_P2;Temp;Humidity;BMP_temperature;BMP_pressure;BME280_temperature;BME280_humidity;BME280_pressure;Samples;Min_cycle;Max_cycle;Signal;HPM_P1;HPM_P2
2022/01/07 00:00:01;;;;;;;11.23;7.07;;;;;;;;;;5066198;28;20206;-80
2022/01/07 00:02:28;;;;;;;13.90;7.17;;;;;;;;;;5074417;28;20204;-79
2022/01/07 00:04:55;;;;;;;12.60;7.97;;;;;;;;;;5069537;28;20236;-81
2022/01/07 00:07:22;;;;;;;11.30;6.63;;;;;;;;;;5061099;28;20212;-80
2022/01/07 00:09:49;;;;;;;14.17;7.90;;;;;;;;;;5058568;28;20233;-79
2022/01/07 00:12:21;;;;;;;11.27;6.77;;;;;;;;;;5059866;28;20212;-79
2022/01/07 00:14:49;;;;;;;13.80;6.07;;;;;;;;;;5059277;28;20235;-78
2022/01/07 00:17:17;;;;;;;11.90;7.00;;;;;;;;;;5037141;28;20216;-78
2022/01/07 00:19:44;;;;;;;15.57;7.60;;;;;;;;;;5048307;28;20230;-79
2022/01/07 00:22:11;;;;;;;15.03;7.90;;;;;;;;;;5063593;28;20232;-80
2022/01/07 00:24:38;;;;;;;15.27;7.20;;;;;;;;;;5059864;28;20239;-80
2022/01/07 00:27:05;;;;;;;15.00;6.77;;;;;;;;;;5062038;28;20208;-80
2022/01/07 00:29:32;;;;;;;18.70;6.77;;;;;;;;;;5062316;28;20226;-79
2022/01/07 00:32:00;;;;;;;17.87;7.77;;;;;;;;;;5060345;28;20203;-80
2022/01/07 00:34:27;;;;;;;11.87;7.07;;;;;;;;;;5061255;28;20244;-80
2022/01/07 00:36:54;;;;;;;13.33;7.50;;;;;;;;;;5063407;28;20204;-81
2022/01/07 00:39:22;;;;;;;18.77;8.47;;;;;;;;;;5059249;28;20252;-80
2022/01/07 00:41:49;;;;;;;12.53;8.17;;;;;;;;;;5061730;28;20207;-81
2022/01/07 00:44:16;;;;;;;12.30;7.03;;;;;;;;;;5060286;28;20289;-80
2022/01/07 00:46:43;;;;;;;19.87;8.33;;;;;;;;;;5052692;28;20215;-81
2022/01/07 00:49:13;;;;;;;19.83;8.33;;;;;;;;;;5059443;28;20231;-80
2022/01/07 00:51:40;;;;;;;16.43;8.80;;;;;;;;;;5058689;28;20207;-79
2022/01/07 00:54:07;;;;;;;15.57;8.60;;;;;;;;;;5058405;28;20254;-80
2022/01/07 00:56:34;;;;;;;17.73;8.30;;;;;;;;;;5058625;28;20212;-79
2022/01/07 00:59:01;;;;;;;18.17;8.40;;;;;;;;;;5058018;28;20238;-79
2022/01/07 01:01:28;;;;;;;17.87;8.07;;;;;;;;;;5061360;28;20208;-78
2022/01/07 01:03:55;;;;;;;18.67;8.47;;;;;;;;;;5057279;28;20243;-81
2022/01/07 01:06:24;;;;;;;13.17;7.50;;;;;;;;;;5060158;28;20208;-80
2022/01/07 01:08:51;;;;;;;21.37;9.07;;;;;;;;;;5056210;28;20316;-79
2022/01/07 01:11:18;;;;;;;17.73;9.03;;;;;;;;;;5065333;28;20214;-80
2022/01/07 01:13:45;;;;;;;23.73;9.20;;;;;;;;;;5073854;28;20249;-80
2022/01/07 01:16:12;;;;;;;13.70;7.33;;;;;;;;;;5062012;28;20675;-79
2022/01/07 01:18:39;;;;;;;11.30;7.00;;;;;;;;;;5061491;28;20230;-80
2022/01/07 01:21:06;;;;;;;14.47;7.90;;;;;;;;;;5063596;28;20202;-80
2022/01/07 01:23:34;;;;;;;17.33;7.53;;;;;;;;;;5064931;28;20615;-80
2022/01/07 01:26:02;;;;;;;13.30;7.40;;;;;;;;;;5064240;28;20211;-79
2022/01/07 01:28:29;;;;;;;12.67;7.83;;;;;;;;;;5063578;28;20232;-79
2022/01/07 01:30:56;;;;;;;13.63;7.03;;;;;;;;;;5063699;28;20203;-81
2022/01/07 01:33:23;;;;;;;18.13;8.17;;;;;;;;;;5069245;28;20238;-79
2022/01/07 01:35:50;;;;;;;10.43;7.10;;;;;;;;;;5070888;28;20203;-80
2022/01/07 01:38:17;;;;;;;14.17;8.43;;;;;;;;;;5069311;28;20238;-80
2022/01/07 01:40:45;;;;;;;16.67;8.47;;;;;;;;;;5066415;28;20214;-80
2022/01/07 01:43:13;;;;;;;18.20;7.73;;;;;;;;;;5066660;28;20243;-79
2022/01/07 01:45:40;;;;;;;17.77;7.13;;;;;;;;;;5061285;28;20215;-79
2022/01/07 01:48:07;;;;;;;17.43;8.17;;;;;;;;;;5058698;28;20302;-80
2022/01/07 01:50:34;;;;;;;12.80;7.63;;;;;;;;;;5065728;28;20204;-80
2022/01/07 01:53:01;;;;;;;11.53;7.70;;;;;;;;;;5063398;28;20697;-81
2022/01/07 01:55:28;;;;;;;10.80;7.77;;;;;;;;;;5063978;28;20245;-79
2022/01/07 01:57:57;;;;;;;19.40;8.17;;;;;;;;;;5062020;28;20258;-79
2022/01/07 02:00:25;;;;;;;14.63;8.20;;;;;;;;;;5068809;28;20199;-79
2022/01/07 02:02:52;;;;;;;13.77;8.10;;;;;;;;;;5062238;28;20233;-80
2022/01/07 02:05:19;;;;;;;13.03;8.03;;;;;;;;;;5065783;28;20228;-80
2022/01/07 02:07:47;;;;;;;13.23;8.50;;;;;;;;;;5078387;28;20214;-79
2022/01/07 02:10:15;;;;;;;14.33;8.20;;;;;;;;;;5073224;28;20205;-80
2022/01/07 02:12:42;;;;;;;20.57;9.13;;;;;;;;;;5061954;28;20210;-79
2022/01/07 02:15:11;;;;;;;11.27;7.97;;;;;;;;;;5051075;28;20215;-80
2022/01/07 02:17:41;;;;;;;13.57;8.83;;;;;;;;;;5056902;28;20216;-78
2022/01/07 02:20:10;;;;;;;14.83;8.23;;;;;;;;;;5060100;28;20234;-80
2022/01/07 02:22:37;;;;;;;14.87;8.90;;;;;;;;;;5054953;28;20209;-79
2022/01/07 02:25:05;;;;;;;12.33;8.33;;;;;;;;;;5060520;28;20232;-79
2022/01/07 02:27:35;;;;;;;15.60;8.47;;;;;;;;;;5056790;28;20215;-79
2022/01/07 02:30:02;;;;;;;10.33;7.70;;;;;;;;;;5054432;28;20202;-79
2022/01/07 02:32:29;;;;;;;16.10;8.77;;;;;;;;;;5056326;28;20661;-80
2022/01/07 02:34:57;;;;;;;15.97;9.00;;;;;;;;;;5054454;28;20219;-79
2022/01/07 02:37:25;;;;;;;27.77;9.93;;;;;;;;;;5054697;28;20214;-79
2022/01/07 02:39:54;;;;;;;15.37;9.10;;;;;;;;;;5055591;28;20240;-81
2022/01/07 02:42:21;;;;;;;15.90;9.17;;;;;;;;;;5055084;28;20212;-79
2022/01/07 02:44:48;;;;;;;17.57;9.47;;;;;;;;;;5053631;28;20244;-80
2022/01/07 02:47:16;;;;;;;17.77;8.33;;;;;;;;;;5055526;28;20560;-80
2022/01/07 02:49:43;;;;;;;16.67;8.30;;;;;;;;;;5053869;28;20742;-80
2022/01/07 02:52:10;;;;;;;18.67;8.97;;;;;;;;;;5054097;28;20694;-80
2022/01/07 02:54:38;;;;;;;21.43;9.00;;;;;;;;;;5056608;28;20723;-80
2022/01/07 02:57:06;;;;;;;20.73;9.63;;;;;;;;;;5053838;28;20217;-79
2022/01/07 02:59:33;;;;;;;25.00;8.87;;;;;;;;;;5057759;28;20622;-80
2022/01/07 03:02:00;;;;;;;17.30;8.23;;;;;;;;;;5055433;28;20207;-79
2022/01/07 03:04:28;;;;;;;16.67;9.10;;;;;;;;;;5058458;28;20231;-81
2022/01/07 03:06:55;;;;;;;18.57;9.57;;;;;;;;;;5055083;28;20269;-80
2022/01/07 03:09:22;;;;;;;17.47;8.27;;;;;;;;;;5053253;28;20242;-80
2022/01/07 03:11:51;;;;;;;16.87;8.47;;;;;;;;;;5054132;28;20212;-81
2022/01/07 03:14:18;;;;;;;15.00;8.43;;;;;;;;;;5053046;28;20357;-79
2022/01/07 03:16:45;;;;;;;12.10;8.40;;;;;;;;;;5059237;28;20276;-80
2022/01/07 03:19:12;;;;;;;14.80;8.07;;;;;;;;;;5052992;28;20236;-79
2022/01/07 03:21:39;;;;;;;15.77;8.70;;;;;;;;;;5053028;28;20240;-79
2022/01/07 03:24:06;;;;;;;19.30;8.43;;;;;;;;;;5052115;28;20245;-80
2022/01/07 03:26:33;;;;;;;12.47;7.57;;;;;;;;;;5049087;28;20200;-80
2022/01/07 03:29:02;;;;;;;8.13;5.80;;;;;;;;;;5051628;28;20236;-79
2022/01/07 03:31:29;;;;;;;10.10;6.73;;;;;;;;;;5051793;28;20261;-79
2022/01/07 03:33:56;;;;;;;10.97;8.00;;;;;;;;;;5051370;28;20264;-80
2022/01/07 03:36:23;;;;;;;16.07;7.77;;;;;;;;;;5052069;28;20576;-79
2022/01/07 03:38:50;;;;;;;17.80;8.70;;;;;;;;;;5052846;28;20696;-79
2022/01/07 03:41:17;;;;;;;13.90;8.50;;;;;;;;;;5056165;28;20204;-79
2022/01/07 03:43:44;;;;;;;18.40;8.00;;;;;;;;;;5055261;28;20227;-80
2022/01/07 03:46:13;;;;;;;13.20;8.47;;;;;;;;;;5055776;28;20212;-79
2022/01/07 03:48:40;;;;;;;11.53;7.77;;;;;;;;;;5055556;28;20242;-79
2022/01/07 03:51:07;;;;;;;19.00;9.03;;;;;;;;;;5056304;28;20269;-79
2022/01/07 03:53:34;;;;;;;19.90;8.53;;;;;;;;;;5054918;28;20772;-79
2022/01/07 03:56:01;;;;;;;13.13;8.77;;;;;;;;;;5055592;28;20213;-80
2022/01/07 03:58:28;;;;;;;19.23;9.07;;;;;;;;;;5055090;28;20241;-79
2022/01/07 04:00:55;;;;;;;17.63;8.53;;;;;;;;;;5055957;28;20209;-79
2022/01/07 04:03:23;;;;;;;17.43;8.07;;;;;;;;;;5053063;28;20240;-80
2022/01/07 04:05:50;;;;;;;14.10;8.00;;;;;;;;;;5036554;28;20204;-78
2022/01/07 04:08:17;;;;;;;20.00;9.53;;;;;;;;;;5042890;28;20227;-78
2022/01/07 04:10:44;;;;;;;11.43;6.70;;;;;;;;;;5055297;28;20722;-78
2022/01/07 04:13:11;;;;;;;14.07;8.70;;;;;;;;;;5054248;28;20237;-79
2022/01/07 04:15:38;;;;;;;21.37;8.83;;;;;;;;;;5055161;28;20209;-79
2022/01/07 04:18:06;;;;;;;20.90;9.03;;;;;;;;;;5054795;28;20232;-79
2022/01/07 04:20:35;;;;;;;9.40;7.17;;;;;;;;;;5055123;28;20448;-79
2022/01/07 04:23:02;;;;;;;10.90;7.40;;;;;;;;;;5054565;28;20236;-79
2022/01/07 04:25:30;;;;;;;15.63;8.07;;;;;;;;;;5054725;28;20228;-79
2022/01/07 04:27:59;;;;;;;12.17;8.10;;;;;;;;;;5054401;28;20239;-80
2022/01/07 04:30:29;;;;;;;17.07;8.43;;;;;;;;;;5054103;28;20299;-79
2022/01/07 04:32:56;;;;;;;24.70;8.43;;;;;;;;;;5053468;28;20317;-79
2022/01/07 04:35:23;;;;;;;15.23;8.57;;;;;;;;;;5054833;28;20228;-79
2022/01/07 04:37:52;;;;;;;12.87;7.23;;;;;;;;;;5054511;28;20234;-79
2022/01/07 04:40:20;;;;;;;11.07;7.03;;;;;;;;;;5054960;28;20236;-79
2022/01/07 04:42:48;;;;;;;16.80;8.07;;;;;;;;;;5054284;28;20233;-81
2022/01/07 04:45:15;;;;;;;12.40;7.50;;;;;;;;;;5054514;28;20227;-79
2022/01/07 04:47:43;;;;;;;16.63;8.00;;;;;;;;;;5054150;28;20209;-78
2022/01/07 04:50:12;;;;;;;18.53;8.33;;;;;;;;;;5052576;28;20200;-79
2022/01/07 04:52:41;;;;;;;23.63;9.17;;;;;;;;;;5054152;28;20196;-78
2022/01/07 04:55:10;;;;;;;14.93;7.87;;;;;;;;;;5054821;28;20687;-81
2022/01/07 04:57:37;;;;;;;18.20;8.67;;;;;;;;;;5053711;28;20204;-79
2022/01/07 05:00:04;;;;;;;17.77;7.07;;;;;;;;;;5063494;28;20625;-80
2022/01/07 05:02:31;;;;;;;13.63;8.10;;;;;;;;;;5071364;28;20218;-78
2022/01/07 05:04:58;;;;;;;11.60;5.70;;;;;;;;;;5053979;28;20235;-78
2022/01/07 05:07:25;;;;;;;14.90;7.97;;;;;;;;;;5040480;28;20205;-79
2022/01/07 05:09:53;;;;;;;14.07;7.00;;;;;;;;;;5034044;28;20234;-79
2022/01/07 05:12:22;;;;;;;18.97;9.07;;;;;;;;;;5034366;28;20213;-79
2022/01/07 05:14:49;;;;;;;15.97;6.27;;;;;;;;;;5033623;28;20725;-79
2022/01/07 05:17:16;;;;;;;17.47;7.63;;;;;;;;;;5034089;28;20217;-79
2022/01/07 05:19:43;;;;;;;16.73;6.53;;;;;;;;;;5033392;28;20303;-80
2022/01/07 05:22:10;;;;;;;15.67;8.87;;;;;;;;;;5033921;28;20212;-79
2022/01/07 05:24:37;;;;;;;5.93;3.77;;;;;;;;;;5033452;28;20242;-80
2022/01/07 05:27:05;;;;;;;14.33;7.13;;;;;;;;;;5034270;28;20237;-79
2022/01/07 05:29:35;;;;;;;8.00;4.43;;;;;;;;;;5033575;28;20233;-79
2022/01/07 05:32:02;;;;;;;9.43;7.70;;;;;;;;;;5034076;28;20280;-79
2022/01/07 05:34:29;;;;;;;12.70;7.60;;;;;;;;;;5033074;28;20247;-80
2022/01/07 05:36:56;;;;;;;9.53;5.57;;;;;;;;;;5033766;28;20209;-79
2022/01/07 05:39:23;;;;;;;13.17;7.53;;;;;;;;;;5033176;28;20262;-79
2022/01/07 05:41:50;;;;;;;11.57;5.50;;;;;;;;;;5033355;28;20651;-79
2022/01/07 05:44:17;;;;;;;11.03;4.70;;;;;;;;;;5034125;28;20243;-79
2022/01/07 05:46:46;;;;;;;6.03;5.03;;;;;;;;;;5034011;28;20217;-79
2022/01/07 05:49:13;;;;;;;7.33;6.53;;;;;;;;;;5032968;28;20307;-79
2022/01/07 05:51:41;;;;;;;4.07;3.73;;;;;;;;;;5033172;28;20210;-79
2022/01/07 05:54:08;;;;;;;14.37;7.23;;;;;;;;;;5032798;28;20241;-78
2022/01/07 05:56:36;;;;;;;9.77;7.13;;;;;;;;;;5034674;28;20558;-80
2022/01/07 05:59:03;;;;;;;9.77;5.83;;;;;;;;;;5033036;28;20599;-79
2022/01/07 06:01:30;;;;;;;14.30;6.90;;;;;;;;;;5033006;28;20570;-80
2022/01/07 06:03:58;;;;;;;9.83;7.00;;;;;;;;;;5032269;28;20251;-79
2022/01/07 06:06:27;;;;;;;8.73;5.63;;;;;;;;;;5033290;28;20209;-79
2022/01/07 06:08:54;;;;;;;10.30;7.53;;;;;;;;;;5032933;28;20241;-79
2022/01/07 06:11:21;;;;;;;11.37;4.60;;;;;;;;;;5040298;28;20241;-80
2022/01/07 06:13:48;;;;;;;9.60;6.43;;;;;;;;;;5040129;28;20524;-80
2022/01/07 06:16:15;;;;;;;9.73;4.80;;;;;;;;;;5040767;28;20217;-80
2022/01/07 06:18:50;;;;;;;11.47;6.93;;;;;;;;;;5041219;28;20243;-80
2022/01/07 06:21:18;;;;;;;6.70;5.53;;;;;;;;;;5038999;28;20225;-80
2022/01/07 06:23:46;;;;;;;8.43;5.90;;;;;;;;;;5037864;28;20256;-80
2022/01/07 06:26:13;;;;;;;9.90;5.60;;;;;;;;;;5039208;28;20240;-81
2022/01/07 06:28:40;;;;;;;11.30;6.40;;;;;;;;;;5037117;28;20242;-80
2022/01/07 06:31:07;;;;;;;14.97;7.67;;;;;;;;;;5036105;28;20187;-80
2022/01/07 06:33:34;;;;;;;13.40;7.30;;;;;;;;;;5035439;28;20280;-80
2022/01/07 06:36:01;;;;;;;16.37;7.90;;;;;;;;;;5033786;28;20217;-80
2022/01/07 06:38:29;;;;;;;17.03;8.90;;;;;;;;;;5039333;28;20237;-79
2022/01/07 06:40:56;;;;;;;8.50;6.03;;;;;;;;;;5054369;28;20244;-80
2022/01/07 06:43:23;;;;;;;16.73;7.53;;;;;;;;;;5052494;28;20229;-80
2022/01/07 06:45:50;;;;;;;18.97;8.50;;;;;;;;;;5033298;28;20199;-80
2022/01/07 06:48:18;;;;;;;8.10;6.50;;;;;;;;;;5037393;28;20233;-80
2022/01/07 06:50:46;;;;;;;7.90;5.03;;;;;;;;;;5052793;28;20233;-80
2022/01/07 06:53:13;;;;;;;9.17;6.80;;;;;;;;;;5051857;28;20244;-79
2022/01/07 06:55:41;;;;;;;12.87;8.23;;;;;;;;;;5052516;28;20208;-80
2022/01/07 06:58:08;;;;;;;9.47;6.90;;;;;;;;;;5052683;28;20239;-80
2022/01/07 07:00:35;;;;;;;8.23;6.27;;;;;;;;;;5052153;28;20272;-80
2022/01/07 07:03:02;;;;;;;6.03;4.17;;;;;;;;;;5052741;28;20236;-80
2022/01/07 07:05:29;;;;;;;13.53;6.83;;;;;;;;;;5052477;28;20237;-79
2022/01/07 07:07:57;;;;;;;16.33;7.00;;;;;;;;;;5052009;28;20243;-80
2022/01/07 07:10:25;;;;;;;11.10;6.73;;;;;;;;;;5053110;28;20244;-79
2022/01/07 07:12:54;;;;;;;7.53;6.13;;;;;;;;;;5052102;28;20321;-80
2022/01/07 07:15:21;;;;;;;9.00;7.23;;;;;;;;;;5051867;28;20261;-79
2022/01/07 07:17:48;;;;;;;7.73;5.27;;;;;;;;;;5051961;28;20266;-79
2022/01/07 07:20:15;;;;;;;4.27;3.93;;;;;;;;;;5051799;28;20265;-79
2022/01/07 07:22:43;;;;;;;9.27;5.10;;;;;;;;;;5051249;28;20689;-80
2022/01/07 07:25:10;;;;;;;4.70;4.27;;;;;;;;;;5052211;28;20226;-79
2022/01/07 07:27:37;;;;;;;5.83;4.77;;;;;;;;;;5051496;28;20311;-79
2022/01/07 07:30:06;;;;;;;9.87;5.90;;;;;;;;;;5052323;28;20271;-82
2022/01/07 07:32:35;;;;;;;7.53;5.10;;;;;;;;;;5051342;28;20213;-79
2022/01/07 07:36:25;;;;;;;11.23;6.23;;;;;;;;;;5051406;28;20226;-79
2022/01/07 07:37:50;;;;;;;12.77;5.90;;;;;;;;;;5051142;28;20331;-79
2022/01/07 07:40:17;;;;;;;4.43;3.87;;;;;;;;;;5051975;28;20241;-80
2022/01/07 07:42:44;;;;;;;5.27;4.77;;;;;;;;;;5051348;28;20244;-80
2022/01/07 07:45:14;;;;;;;9.07;5.40;;;;;;;;;;5052169;28;20720;-80
2022/01/07 07:47:41;;;;;;;5.13;4.10;;;;;;;;;;5052010;28;20694;-81
2022/01/07 07:50:09;;;;;;;5.50;4.80;;;;;;;;;;5052185;28;20638;-80
2022/01/07 07:52:36;;;;;;;13.00;6.60;;;;;;;;;;5051818;28;20217;-79
2022/01/07 07:55:03;;;;;;;10.50;6.50;;;;;;;;;;5050204;28;20260;-79
2022/01/07 07:57:30;;;;;;;8.77;6.00;;;;;;;;;;5051418;28;20202;-79
2022/01/07 07:59:57;;;;;;;8.47;5.33;;;;;;;;;;5051757;28;20339;-80
2022/01/07 08:02:30;;;;;;;10.10;5.97;;;;;;;;;;5051376;28;20214;-79
2022/01/07 08:04:57;;;;;;;7.73;5.13;;;;;;;;;;5038445;28;20247;-79
2022/01/07 08:07:24;;;;;;;8.27;5.73;;;;;;;;;;5032086;28;20207;-79
2022/01/07 08:09:52;;;;;;;11.67;6.07;;;;;;;;;;5032434;28;20227;-79
2022/01/07 08:12:20;;;;;;;9.53;7.00;;;;;;;;;;5032418;28;20211;-79
2022/01/07 08:17:34;;;;;;;8.57;5.93;;;;;;;;;;5051718;28;20188;-79
2022/01/07 08:20:01;;;;;;;8.00;6.13;;;;;;;;;;5053414;28;20292;-80
2022/01/07 08:22:28;;;;;;;10.53;6.73;;;;;;;;;;5052241;28;20614;-80
2022/01/07 08:24:55;;;;;;;7.83;5.83;;;;;;;;;;5051512;28;21011;-78
2022/01/07 08:27:22;;;;;;;8.37;5.30;;;;;;;;;;5056016;28;20212;-80
2022/01/07 08:29:51;;;;;;;13.03;8.10;;;;;;;;;;5035378;28;20226;-79
2022/01/07 08:35:04;;;;;;;5.97;3.93;;;;;;;;;;5054450;28;20723;-79
2022/01/07 08:37:31;;;;;;;6.90;4.33;;;;;;;;;;5053897;28;20205;-78
2022/01/07 08:39:58;;;;;;;11.53;6.70;;;;;;;;;;5055539;28;20212;-79
2022/01/07 08:42:26;;;;;;;6.43;5.70;;;;;;;;;;5057263;28;20206;-79
2022/01/07 08:44:54;;;;;;;8.50;6.70;;;;;;;;;;5056326;28;20666;-79
2022/01/07 08:47:22;;;;;;;8.80;4.63;;;;;;;;;;5054932;28;20575;-77
2022/01/07 08:49:49;;;;;;;9.83;7.60;;;;;;;;;;5053578;28;20249;-76
2022/01/07 08:52:17;;;;;;;3.63;3.33;;;;;;;;;;5053718;28;20280;-77
2022/01/07 08:54:44;;;;;;;7.73;6.53;;;;;;;;;;5053892;28;20243;-77
2022/01/07 08:57:11;;;;;;;10.97;6.87;;;;;;;;;;5054214;28;20210;-77
2022/01/07 08:59:38;;;;;;;9.33;6.27;;;;;;;;;;5053747;28;20233;-78
2022/01/07 09:02:05;;;;;;;6.40;4.27;;;;;;;;;;5053471;28;20233;-80
2022/01/07 09:04:32;;;;;;;8.00;5.93;;;;;;;;;;5058114;28;20234;-80
2022/01/07 09:06:59;;;;;;;5.67;4.53;;;;;;;;;;5059243;28;20206;-78
2022/01/07 09:09:28;;;;;;;6.20;5.60;;;;;;;;;;5060969;28;20230;-78
2022/01/07 09:11:55;;;;;;;7.37;5.57;;;;;;;;;;5063519;28;20202;-78
2022/01/07 09:14:22;;;;;;;9.43;7.10;;;;;;;;;;5063583;28;20248;-78
2022/01/07 09:16:49;;;;;;;6.43;4.53;;;;;;;;;;5064849;28;20220;-79
2022/01/07 09:19:16;;;;;;;11.90;5.23;;;;;;;;;;5064370;28;20237;-79
2022/01/07 09:21:43;;;;;;;8.17;6.70;;;;;;;;;;5065916;28;20240;-79
2022/01/07 09:24:10;;;;;;;6.07;5.40;;;;;;;;;;5065585;28;20242;-79
2022/01/07 09:26:39;;;;;;;10.93;6.07;;;;;;;;;;5066306;28;20202;-79
2022/01/07 09:29:06;;;;;;;7.87;6.10;;;;;;;;;;5059499;28;20816;-77
2022/01/07 09:31:33;;;;;;;9.00;6.80;;;;;;;;;;5060428;28;20222;-81
2022/01/07 09:34:01;;;;;;;10.53;6.43;;;;;;;;;;5079894;28;20261;-78
2022/01/07 09:36:28;;;;;;;4.93;3.27;;;;;;;;;;5075481;28;20247;-77
2022/01/07 09:38:55;;;;;;;10.20;6.23;;;;;;;;;;5061464;28;20234;-78
2022/01/07 09:41:22;;;;;;;8.60;6.80;;;;;;;;;;5063680;28;20228;-79
2022/01/07 09:43:50;;;;;;;3.97;3.57;;;;;;;;;;5063612;28;20242;-78
2022/01/07 09:46:18;;;;;;;9.53;5.63;;;;;;;;;;5063598;28;20276;-79
2022/01/07 09:48:46;;;;;;;8.00;6.40;;;;;;;;;;5064321;28;20234;-79
2022/01/07 09:51:14;;;;;;;11.37;5.97;;;;;;;;;;5063312;28;20212;-79
2022/01/07 09:53:41;;;;;;;9.60;7.07;;;;;;;;;;5063181;28;20229;-78
2022/01/07 09:56:09;;;;;;;4.27;3.87;;;;;;;;;;5062988;28;20225;-79
2022/01/07 09:58:37;;;;;;;6.27;5.03;;;;;;;;;;5063125;28;20316;-78
2022/01/07 10:01:09;;;;;;;12.23;6.50;;;;;;;;;;5062637;28;20233;-78
2022/01/07 10:03:39;;;;;;;12.57;6.20;;;;;;;;;;5063038;28;20254;-79
2022/01/07 10:06:17;;;;;;;5.87;5.27;;;;;;;;;;5064579;28;20220;-80
2022/01/07 10:08:46;;;;;;;10.23;7.40;;;;;;;;;;5062293;28;20244;-80
2022/01/07 10:11:15;;;;;;;7.43;5.60;;;;;;;;;;5061764;28;20206;-78
2022/01/07 10:13:42;;;;;;;7.67;5.43;;;;;;;;;;5061516;28;20604;-79
2022/01/07 10:16:19;;;;;;;13.30;7.60;;;;;;;;;;5063678;28;20202;-79
2022/01/07 10:18:47;;;;;;;9.80;6.80;;;;;;;;;;5063095;28;20268;-79
2022/01/07 10:21:14;;;;;;;13.30;7.57;;;;;;;;;;5062088;28;20225;-78
2022/01/07 10:23:41;;;;;;;12.10;7.50;;;;;;;;;;5061527;28;20268;-79
2022/01/07 10:26:17;;;;;;;5.10;4.10;;;;;;;;;;5082936;28;20205;-79
2022/01/07 10:28:44;;;;;;;8.30;6.63;;;;;;;;;;5083355;28;20310;-79
2022/01/07 10:31:11;;;;;;;7.87;6.10;;;;;;;;;;5083764;28;20205;-79
2022/01/07 10:33:40;;;;;;;9.73;6.47;;;;;;;;;;5082281;28;20241;-79
2022/01/07 10:36:18;;;;;;;6.63;5.10;;;;;;;;;;5082288;28;20205;-79
2022/01/07 10:38:49;;;;;;;6.37;5.27;;;;;;;;;;5079221;28;20242;-79
2022/01/07 10:41:17;;;;;;;6.80;6.03;;;;;;;;;;5059826;28;20716;-78
2022/01/07 10:43:44;;;;;;;8.27;5.87;;;;;;;;;;5060651;28;20241;-79
2022/01/07 10:46:15;;;;;;;7.37;5.40;;;;;;;;;;5054556;28;20224;-78
2022/01/07 10:48:46;;;;;;;6.50;4.67;;;;;;;;;;5059228;28;20234;-79
2022/01/07 10:51:14;;;;;;;7.10;5.27;;;;;;;;;;5058561;28;20198;-79
2022/01/07 10:53:41;;;;;;;11.20;5.43;;;;;;;;;;5059171;28;20237;-79
2022/01/07 10:56:12;;;;;;;11.00;7.27;;;;;;;;;;5059751;28;20282;-79
2022/01/07 10:59:10;;;;;;;11.57;6.43;;;;;;;;;;5058687;28;20230;-79
2022/01/07 11:01:38;;;;;;;10.90;7.63;;;;;;;;;;5057584;28;20715;-78
2022/01/07 11:04:08;;;;;;;8.40;5.97;;;;;;;;;;5058691;28;20234;-79
2022/01/07 11:06:35;;;;;;;6.13;4.70;;;;;;;;;;5059963;28;20230;-79
2022/01/07 11:09:02;;;;;;;13.73;6.13;;;;;;;;;;5059849;28;20238;-79
2022/01/07 11:11:30;;;;;;;3.87;3.57;;;;;;;;;;5065556;28;20206;-79
2022/01/07 11:14:02;;;;;;;10.47;6.80;;;;;;;;;;5066627;28;20245;-79
2022/01/07 11:16:29;;;;;;;10.87;6.77;;;;;;;;;;5060369;28;20206;-79
2022/01/07 11:18:57;;;;;;;7.57;5.20;;;;;;;;;;5059678;28;20244;-80
2022/01/07 11:21:26;;;;;;;7.10;4.93;;;;;;;;;;5059071;28;20621;-79
2022/01/07 11:23:53;;;;;;;4.13;3.83;;;;;;;;;;5059415;28;20238;-79
2022/01/07 11:26:20;;;;;;;9.60;6.17;;;;;;;;;;5060452;28;20209;-79
2022/01/07 11:28:58;;;;;;;9.97;5.57;;;;;;;;;;5059617;28;20231;-78
2022/01/07 11:31:25;;;;;;;6.07;5.13;;;;;;;;;;5060046;28;20197;-79
2022/01/07 11:34:07;;;;;;;8.13;5.53;;;;;;;;;;5074829;28;20256;-79
2022/01/07 11:36:37;;;;;;;9.03;6.03;;;;;;;;;;5080594;28;20205;-79
2022/01/07 11:39:06;;;;;;;7.73;6.87;;;;;;;;;;5080452;28;20248;-79
2022/01/07 11:41:43;;;;;;;7.40;5.07;;;;;;;;;;5079846;28;20225;-80
2022/01/07 11:44:11;;;;;;;8.50;5.33;;;;;;;;;;5079150;28;20259;-79
2022/01/07 11:46:38;;;;;;;5.40;4.90;;;;;;;;;;5079258;28;20209;-80
2022/01/07 11:49:05;;;;;;;8.07;5.97;;;;;;;;;;5079723;28;20244;-79
2022/01/07 11:51:43;;;;;;;5.87;5.13;;;;;;;;;;5078461;28;20208;-78
2022/01/07 11:54:12;;;;;;;4.80;4.33;;;;;;;;;;5078869;28;20245;-79
2022/01/07 11:56:40;;;;;;;9.23;5.40;;;;;;;;;;5078380;28;20262;-79
2022/01/07 11:59:19;;;;;;;8.17;6.47;;;;;;;;;;5078879;28;20251;-79
2022/01/07 12:01:56;;;;;;;7.60;5.77;;;;;;;;;;5080870;28;20289;-79
2022/01/07 12:04:27;;;;;;;7.27;5.87;;;;;;;;;;5079601;28;20233;-79
2022/01/07 12:06:55;;;;;;;8.77;7.17;;;;;;;;;;5061198;28;20202;-79
2022/01/07 12:09:29;;;;;;;4.13;3.60;;;;;;;;;;5044001;28;20722;-80
2022/01/07 12:11:58;;;;;;;10.93;6.00;;;;;;;;;;5042832;28;20271;-79
2022/01/07 12:14:26;;;;;;;9.30;7.13;;;;;;;;;;5043000;28;20235;-79
2022/01/07 12:16:54;;;;;;;6.67;5.93;;;;;;;;;;5059097;28;20202;-80
2022/01/07 12:19:52;;;;;;;15.30;7.70;;;;;;;;;;5063240;28;20720;-80
2022/01/07 12:22:21;;;;;;;8.90;6.17;;;;;;;;;;5063290;28;20226;-79
2022/01/07 12:24:49;;;;;;;9.77;6.50;;;;;;;;;;5047753;28;20715;-80
2022/01/07 12:27:20;;;;;;;9.50;6.80;;;;;;;;;;5043489;28;20217;-80
2022/01/07 12:29:47;;;;;;;8.00;6.00;;;;;;;;;;5044443;28;20240;-79
2022/01/07 12:32:16;;;;;;;10.10;7.20;;;;;;;;;;5061945;28;20195;-79
2022/01/07 12:34:44;;;;;;;12.00;5.87;;;;;;;;;;5062375;28;20268;-79
2022/01/07 12:37:12;;;;;;;8.43;6.50;;;;;;;;;;5061659;28;20206;-79
2022/01/07 12:39:42;;;;;;;7.53;6.20;;;;;;;;;;5062766;28;20233;-79
2022/01/07 12:42:10;;;;;;;7.13;6.43;;;;;;;;;;5059849;28;20214;-79
2022/01/07 12:44:38;;;;;;;5.57;5.07;;;;;;;;;;5060684;28;20264;-79
2022/01/07 12:47:06;;;;;;;4.80;4.37;;;;;;;;;;5060055;28;20599;-80
2022/01/07 12:49:34;;;;;;;8.00;6.67;;;;;;;;;;5058565;28;20499;-81
2022/01/07 12:52:02;;;;;;;8.00;5.50;;;;;;;;;;5060446;28;20213;-82
2022/01/07 12:54:29;;;;;;;9.93;6.07;;;;;;;;;;5061017;28;20237;-80
2022/01/07 12:56:58;;;;;;;6.00;5.40;;;;;;;;;;5062304;28;20549;-80
2022/01/07 12:59:26;;;;;;;6.77;4.90;;;;;;;;;;5053553;28;20249;-81
2022/01/07 13:01:53;;;;;;;4.90;4.30;;;;;;;;;;5058482;28;20226;-81
2022/01/07 13:04:22;;;;;;;5.53;4.93;;;;;;;;;;5050141;28;20325;-80
2022/01/07 13:06:49;;;;;;;7.23;5.03;;;;;;;;;;5057479;28;20210;-81
2022/01/07 13:09:20;;;;;;;6.57;5.60;;;;;;;;;;5054398;28;20229;-81
2022/01/07 13:11:49;;;;;;;7.33;6.37;;;;;;;;;;5063377;28;20198;-81
2022/01/07 13:14:18;;;;;;;7.47;6.67;;;;;;;;;;5062512;28;20601;-81
2022/01/07 13:16:49;;;;;;;6.73;5.73;;;;;;;;;;5061123;28;20216;-81
2022/01/07 13:19:16;;;;;;;7.23;5.87;;;;;;;;;;5055211;28;20235;-80
2022/01/07 13:21:44;;;;;;;5.33;4.37;;;;;;;;;;5063451;28;20229;-81
2022/01/07 13:24:14;;;;;;;6.90;5.07;;;;;;;;;;5059791;28;20233;-80
2022/01/07 13:26:43;;;;;;;6.30;5.70;;;;;;;;;;5062972;28;20209;-80
2022/01/07 13:29:19;;;;;;;7.77;6.17;;;;;;;;;;5061849;28;20296;-80
2022/01/07 13:31:47;;;;;;;6.77;6.03;;;;;;;;;;5062880;28;20259;-80
2022/01/07 13:34:22;;;;;;;6.97;6.27;;;;;;;;;;5062096;28;20230;-79
2022/01/07 13:36:49;;;;;;;8.47;7.10;;;;;;;;;;5064470;28;20214;-80
2022/01/07 13:39:19;;;;;;;6.03;4.77;;;;;;;;;;5062491;28;20291;-81
2022/01/07 13:41:53;;;;;;;7.27;4.10;;;;;;;;;;5062434;28;20279;-79
2022/01/07 13:44:22;;;;;;;10.67;6.47;;;;;;;;;;5056000;28;20277;-80
2022/01/07 13:46:52;;;;;;;6.10;5.33;;;;;;;;;;5043263;28;20226;-80
2022/01/07 13:49:19;;;;;;;8.80;5.73;;;;;;;;;;5041085;28;20297;-80
2022/01/07 13:51:58;;;;;;;7.47;5.50;;;;;;;;;;5046949;28;20195;-80
2022/01/07 13:54:33;;;;;;;5.93;5.33;;;;;;;;;;5060831;28;20229;-80
2022/01/07 13:57:03;;;;;;;7.30;5.10;;;;;;;;;;5072835;28;20205;-81
2022/01/07 13:59:40;;;;;;;7.10;6.40;;;;;;;;;;5060326;28;20332;-80
2022/01/07 14:02:08;;;;;;;6.47;5.60;;;;;;;;;;5062277;28;20251;-80
2022/01/07 14:04:42;;;;;;;9.33;7.17;;;;;;;;;;5060745;28;20237;-80
2022/01/07 14:07:26;;;;;;;7.03;5.80;;;;;;;;;;5059599;28;20206;-81
2022/01/07 14:10:13;;;;;;;4.70;3.60;;;;;;;;;;5062185;28;20233;-81
2022/01/07 14:12:46;;;;;;;6.83;6.23;;;;;;;;;;5060211;28;20205;-82
2022/01/07 14:15:15;;;;;;;6.67;5.67;;;;;;;;;;5059145;28;20254;-81
2022/01/07 14:17:43;;;;;;;5.00;4.63;;;;;;;;;;5059732;28;20279;-81
2022/01/07 14:20:12;;;;;;;3.97;3.57;;;;;;;;;;5060276;28;20697;-81
2022/01/07 14:22:44;;;;;;;7.47;6.70;;;;;;;;;;5074004;28;20248;-79
2022/01/07 14:25:12;;;;;;;10.87;6.23;;;;;;;;;;5073342;28;20205;-81
2022/01/07 14:27:40;;;;;;;7.53;6.00;;;;;;;;;;5057602;28;20629;-81
2022/01/07 14:30:08;;;;;;;6.63;5.30;;;;;;;;;;5046618;28;20207;-81
2022/01/07 14:32:37;;;;;;;9.40;5.00;;;;;;;;;;5045377;28;20729;-83
2022/01/07 14:35:05;;;;;;;7.43;6.33;;;;;;;;;;5074358;28;20229;-82
2022/01/07 14:37:33;;;;;;;7.47;6.00;;;;;;;;;;5042466;28;20226;-81
2022/01/07 14:40:00;;;;;;;5.53;5.00;;;;;;;;;;5056838;28;20217;-81
2022/01/07 14:42:27;;;;;;;6.27;5.60;;;;;;;;;;5054064;28;20222;-81
2022/01/07 14:44:55;;;;;;;9.60;6.33;;;;;;;;;;5048168;28;21037;-82
2022/01/07 14:47:22;;;;;;;9.37;7.23;;;;;;;;;;5047264;28;20208;-81